Time;durP1;ratioP1;P1;durP2;ratioP2;P2;SDS_P1;SDS_P2;PMS_P1;PMS_P2;Temp;Humidity;BMP_temperature;BMP_pressure;BME280_temperature;BME280_humidity;BME280_pressure;Samples;Min_cycle;Max_cycle;Signal;HPM_P1;HPM_P2
2023/03/03 00:02:44;;;;;;;6.10;4.87;;;;;;;15.96;49.70;96739.41;10349426;28;20506;-31
2023/03/03 00:07:44;;;;;;;8.07;5.50;;;;;;;15.96;48.99;96754.56;10333909;28;20026;-31
2023/03/03 00:12:49;;;;;;;6.07;4.90;;;;;;;15.98;49.02;96762.16;10329426;28;20040;-31
2023/03/03 00:17:51;;;;;;;6.85;4.80;;;;;;;15.97;48.90;96766.38;10344731;28;20387;-31
2023/03/03 00:22:52;;;;;;;7.18;4.55;;;;;;;15.93;48.76;96759.59;10328462;28;20233;-31
2023/03/03 00:27:52;;;;;;;6.80;5.63;;;;;;;15.93;48.84;96762.13;10338495;28;20501;-31
2023/03/03 00:32:54;;;;;;;8.27;4.68;;;;;;;15.95;49.20;96764.66;10336686;28;20108;-31
2023/03/03 00:37:58;;;;;;;7.43;4.75;;;;;;;15.97;49.08;96766.38;10323194;28;20562;-34
2023/03/03 00:42:59;;;;;;;6.72;4.85;;;;;;;15.96;49.00;96757.09;10310900;28;20453;-31
2023/03/03 00:48:18;;;;;;;5.88;4.30;;;;;;;15.95;48.72;96762.97;10332640;28;20036;-32
2023/03/03 00:53:21;;;;;;;5.55;4.03;;;;;;;15.98;48.43;96763.03;10352173;28;20038;-32
2023/03/03 00:58:23;;;;;;;8.48;5.13;;;;;;;15.93;49.15;96774.72;10315578;28;20384;-31
2023/03/03 01:03:25;;;;;;;7.57;4.88;;;;;;;15.91;48.65;96771.34;10307090;28;20077;-32
2023/03/03 01:08:26;;;;;;;5.18;4.32;;;;;;;15.95;48.65;96780.63;10342636;28;20031;-31
2023/03/03 01:13:30;;;;;;;6.23;5.17;;;;;;;15.89;48.82;96773.03;10350659;28;20033;-31
2023/03/03 01:18:31;;;;;;;5.60;4.57;;;;;;;15.96;48.40;96773.94;10341685;28;20285;-31
2023/03/03 01:23:33;;;;;;;6.47;4.30;;;;;;;15.97;48.52;96768.03;10322493;28;20038;-31
2023/03/03 01:28:33;;;;;;;4.85;4.28;;;;;;;15.99;48.20;96768.91;10346452;28;20069;-31
2023/03/03 01:33:35;;;;;;;6.22;4.97;;;;;;;15.94;48.47;96766.31;10321631;28;20438;-31
2023/03/03 01:38:36;;;;;;;5.47;4.03;;;;;;;15.83;49.05;96756.94;10313097;28;20046;-31
2023/03/03 01:43:43;;;;;;;7.05;4.50;;;;;;;15.85;48.72;96776.31;10358070;28;20084;-32
2023/03/03 01:48:44;;;;;;;4.55;4.13;;;;;;;15.85;48.97;96768.75;10349116;28;20109;-31
2023/03/03 01:53:48;;;;;;;5.57;4.47;;;;;;;15.82;48.41;96761.16;10340393;28;20035;-32
2023/03/03 01:58:54;;;;;;;5.80;4.70;;;;;;;15.82;48.66;96755.25;10320207;28;20027;-32
2023/03/03 02:03:54;;;;;;;5.82;4.53;;;;;;;15.84;48.66;96753.59;10310246;28;20026;-31
2023/03/03 02:09:20;;;;;;;6.10;4.25;;;;;;;15.82;48.43;96745.16;10294444;28;20034;-31
2023/03/03 02:14:20;;;;;;;7.35;5.15;;;;;;;15.82;48.69;96743.50;10322805;28;20546;-31
2023/03/03 02:19:42;;;;;;;4.57;3.97;;;;;;;15.82;48.65;96745.16;10322501;28;20046;-31
2023/03/03 02:24:48;;;;;;;4.63;4.22;;;;;;;15.80;48.47;96749.34;10311563;28;20038;-31
2023/03/03 02:29:48;;;;;;;4.47;4.03;;;;;;;15.77;48.43;96742.59;10312998;28;20031;-31
2023/03/03 02:34:51;;;;;;;4.88;4.22;;;;;;;15.80;48.63;96734.19;10295342;28;20026;-31
2023/03/03 02:39:51;;;;;;;4.80;4.13;;;;;;;15.83;48.59;96729.19;10291905;28;20026;-32
2023/03/03 02:44:53;;;;;;;7.07;5.20;;;;;;;15.85;48.76;96727.53;10305965;28;20089;-30
2023/03/03 02:49:55;;;;;;;6.13;4.32;;;;;;;15.88;48.21;96735.13;10284431;28;20061;-31
2023/03/03 02:54:56;;;;;;;4.75;4.35;;;;;;;15.87;48.12;96724.16;10314195;28;20061;-31
2023/03/03 02:59:56;;;;;;;5.70;4.53;;;;;;;15.83;48.33;96722.47;10295449;28;20073;-31
2023/03/03 03:04:57;;;;;;;4.60;4.15;;;;;;;15.80;48.33;96724.97;10314169;28;20034;-31
2023/03/03 03:09:59;;;;;;;4.03;3.58;;;;;;;15.78;48.57;96724.06;10299270;28;20516;-31
2023/03/03 03:15:02;;;;;;;4.85;4.40;;;;;;;15.77;48.45;96716.50;10285267;28;20081;-30
2023/03/03 03:20:04;;;;;;;4.97;4.47;;;;;;;15.78;48.55;96703.06;10281021;28;20054;-31
2023/03/03 03:25:06;;;;;;;3.58;3.28;;;;;;;15.79;48.10;96720.72;10298082;28;20035;-32
2023/03/03 03:30:08;;;;;;;5.80;4.00;;;;;;;15.81;48.26;96724.13;10306962;28;20105;-31
2023/03/03 03:35:10;;;;;;;4.97;4.25;;;;;;;15.81;48.27;96723.28;10302339;28;20030;-31
2023/03/03 03:40:12;;;;;;;4.88;4.13;;;;;;;15.84;48.00;96733.38;10287178;28;20065;-31
2023/03/03 03:45:14;;;;;;;4.70;3.78;;;;;;;15.85;47.84;96735.94;10304469;28;20066;-31
2023/03/03 03:50:15;;;;;;;5.88;4.10;;;;;;;15.85;47.91;96740.16;10289625;28;20038;-31
2023/03/03 03:55:17;;;;;;;5.78;4.75;;;;;;;15.86;47.84;96731.75;10298896;28;20072;-31
2023/03/03 04:00:17;;;;;;;4.45;3.53;;;;;;;15.85;48.17;96741.00;10298626;28;20057;-30
2023/03/03 04:05:24;;;;;;;5.07;3.95;;;;;;;15.93;47.74;96744.44;10296866;28;20038;-32
2023/03/03 04:10:25;;;;;;;5.50;4.32;;;;;;;15.95;47.52;96741.94;10295114;28;20031;-31
2023/03/03 04:15:26;;;;;;;4.70;4.20;;;;;;;15.95;46.92;96750.34;10287661;28;20097;-31
2023/03/03 04:20:27;;;;;;;6.43;4.70;;;;;;;15.89;47.72;96746.91;10272674;28;20031;-31
2023/03/03 04:25:29;;;;;;;5.82;4.20;;;;;;;15.86;47.67;96757.00;10289130;28;20030;-31
2023/03/03 04:30:32;;;;;;;4.57;4.00;;;;;;;15.83;47.75;96767.91;10311662;28;20061;-31
2023/03/03 04:35:32;;;;;;;4.28;3.85;;;;;;;15.79;47.72;96763.63;10320337;28;20084;-31
2023/03/03 04:40:33;;;;;;;6.78;4.45;;;;;;;15.78;48.16;96756.06;10318785;28;20304;-31
2023/03/03 04:45:35;;;;;;;4.70;4.20;;;;;;;15.75;47.78;96749.31;10303135;28;20080;-31
2023/03/03 04:50:36;;;;;;;4.85;4.10;;;;;;;15.80;47.45;96762.84;10301414;28;20476;-32
2023/03/03 04:55:37;;;;;;;5.43;4.28;;;;;;;15.79;47.60;96758.59;10287954;28;20126;-31
2023/03/03 05:00:39;;;;;;;5.53;4.72;;;;;;;15.89;47.27;96762.06;10309362;28;20085;-32
2023/03/03 05:05:41;;;;;;;5.90;4.40;;;;;;;15.94;46.46;96766.31;10302201;28;20081;-31
2023/03/03 05:10:41;;;;;;;4.87;3.87;;;;;;;15.96;46.78;96764.66;10319560;28;20109;-31
2023/03/03 05:15:42;;;;;;;5.55;4.18;;;;;;;15.97;47.14;96775.63;10326779;28;20465;-31
2023/03/03 05:20:42;;;;;;;7.60;4.88;;;;;;;15.96;46.85;96772.22;10318636;28;20478;-31
2023/03/03 05:25:43;;;;;;;6.97;5.07;;;;;;;16.01;46.90;96769.75;10310090;28;20411;-31
2023/03/03 05:30:43;;;;;;;6.32;5.20;;;;;;;16.03;47.41;96761.38;10304104;28;20512;-31
2023/03/03 05:35:44;;;;;;;8.63;4.63;;;;;;;16.05;46.90;96763.91;10317922;28;20092;-32
2023/03/03 05:40:46;;;;;;;7.38;5.45;;;;;;;16.01;47.10;96763.03;10299614;28;20027;-32
2023/03/03 05:45:46;;;;;;;9.00;6.10;;;;;;;16.05;47.26;96774.03;10293236;28;20407;-31
2023/03/03 05:50:46;;;;;;;7.80;6.32;;;;;;;16.06;47.64;96774.03;10293025;28;20046;-32
2023/03/03 05:55:49;;;;;;;11.47;7.13;;;;;;;16.00;47.96;96773.97;10299541;28;20034;-31
2023/03/03 06:00:49;;;;;;;10.48;7.45;;;;;;;16.11;47.03;96784.19;10344708;28;20165;-30
2023/03/03 06:05:50;;;;;;;15.93;7.97;;;;;;;16.02;47.42;96789.97;10339892;28;20198;-31
2023/03/03 06:10:50;;;;;;;13.47;7.20;;;;;;;16.04;48.16;96790.00;10328965;28;20415;-31
2023/03/03 06:15:50;;;;;;;10.25;6.80;;;;;;;16.01;47.77;96793.34;10320715;28;20137;-31
2023/03/03 06:20:52;;;;;;;13.43;7.23;;;;;;;15.97;48.96;96786.59;10325243;28;20047;-30
2023/03/03 06:25:52;;;;;;;20.77;7.85;;;;;;;16.03;48.06;96789.16;10339948;28;20053;-31
2023/03/03 06:30:54;;;;;;;14.65;7.40;;;;;;;16.02;48.44;96796.72;10361070;28;20038;-31
2023/03/03 06:35:54;;;;;;;13.63;7.13;;;;;;;16.02;48.42;96795.03;10340486;28;20034;-32
2023/03/03 06:40:55;;;;;;;11.48;6.30;;;;;;;16.00;49.18;96800.88;10323295;28;20035;-31
2023/03/03 06:45:55;;;;;;;14.77;6.60;;;;;;;16.01;48.84;96808.50;10334154;28;20041;-31
2023/03/03 06:50:57;;;;;;;21.70;7.83;;;;;;;15.92;47.38;96810.91;10342744;28;20650;-32
2023/03/03 06:55:58;;;;;;;15.15;6.45;;;;;;;15.95;49.05;96813.47;10356138;28;20057;-31
2023/03/03 07:01:00;;;;;;;12.88;6.60;;;;;;;15.97;49.07;96821.94;10326173;28;20105;-31
2023/03/03 07:06:07;;;;;;;11.13;6.22;;;;;;;15.95;48.78;96818.50;10328456;28;20069;-32
2023/03/03 07:11:10;;;;;;;;;;;;;;;15.99;48.67;96829.50;10321647;28;20391;-31
2023/03/03 07:16:13;;;;;;;12.02;5.50;;;;;;;15.93;48.50;96830.28;10333379;28;19913;-31
2023/03/03 07:21:21;;;;;;;12.85;5.65;;;;;;;15.96;49.20;96835.34;10327820;28;20049;-31
2023/03/03 07:26:31;;;;;;;7.90;5.50;;;;;;;15.96;48.61;96840.41;10329620;28;20042;-31
2023/03/03 07:31:38;;;;;;;10.18;5.60;;;;;;;15.97;48.82;96842.13;10332022;28;20331;-32
2023/03/03 07:36:39;;;;;;;9.68;5.85;;;;;;;15.97;48.85;96857.28;10330524;28;20030;-31
2023/03/03 07:41:42;;;;;;;8.52;5.38;;;;;;;15.95;48.85;96846.28;10329717;28;20038;-31
2023/03/03 07:46:49;;;;;;;6.53;5.03;;;;;;;15.95;48.24;96858.91;10343787;28;20037;-31
2023/03/03 07:51:58;;;;;;;12.93;8.63;;;;;;;15.89;47.52;96865.56;10351873;28;20455;-31
2023/03/03 07:57:22;;;;;;;11.40;6.75;;;;;;;15.89;47.86;96853.81;10331421;28;20391;-30
2023/03/03 08:02:22;;;;;;;10.10;5.82;;;;;;;15.98;48.38;96879.16;10315905;28;20042;-31
2023/03/03 08:07:22;;;;;;;10.03;6.80;;;;;;;15.99;48.14;96875.81;10340760;28;20522;-30
2023/03/03 08:12:41;;;;;;;8.73;6.30;;;;;;;15.84;48.93;96868.03;10321957;28;20180;-30
2023/03/03 08:17:44;;;;;;;11.93;6.43;;;;;;;15.90;49.40;96880.75;10336231;28;20041;-31
2023/03/03 08:22:44;;;;;;;8.10;5.60;;;;;;;15.94;48.68;96872.38;10316196;28;20019;-31
2023/03/03 08:27:45;;;;;;;7.53;5.70;;;;;;;15.93;48.61;96877.41;10334782;28;20530;-31
2023/03/03 08:32:45;;;;;;;28.52;6.30;;;;;;;15.98;48.64;96878.31;10335595;28;20041;-32
2023/03/03 08:37:45;;;;;;;13.67;5.77;;;;;;;15.94;48.34;96877.41;10334145;28;20117;-31
2023/03/03 08:42:46;;;;;;;14.20;6.03;;;;;;;15.84;48.36;96870.56;10351012;28;20070;-31
2023/03/03 08:47:46;;;;;;;13.03;6.50;;;;;;;15.88;49.52;96876.50;10319195;28;20046;-31
2023/03/03 08:52:47;;;;;;;8.98;5.90;;;;;;;15.93;48.58;96883.31;10328873;28;20042;-32
2023/03/03 08:57:47;;;;;;;16.00;7.10;;;;;;;15.89;48.68;96878.19;10346916;28;20104;-31
2023/03/03 09:02:49;;;;;;;11.80;6.77;;;;;;;15.90;48.80;96875.69;10316434;28;20463;-31
2023/03/03 09:07:50;;;;;;;11.70;6.22;;;;;;;15.93;49.29;96878.25;10312656;28;20800;-31
2023/03/03 09:12:51;;;;;;;11.18;5.82;;;;;;;15.93;48.37;96885.81;10330595;28;20045;-31
2023/03/03 09:17:52;;;;;;;8.97;5.23;;;;;;;15.95;48.94;96888.38;10317340;28;20046;-31
2023/03/03 09:22:53;;;;;;;7.57;5.50;;;;;;;15.94;49.10;96881.63;10351279;28;20977;-31
2023/03/03 09:27:53;;;;;;;8.10;6.03;;;;;;;15.93;48.25;96880.78;10337866;28;20038;-31
2023/03/03 09:32:56;;;;;;;9.38;6.00;;;;;;;15.96;49.57;96885.03;10349116;28;20041;-31
2023/03/03 09:38:01;;;;;;;10.75;5.53;;;;;;;15.93;49.60;96883.31;10346582;28;20127;-31
2023/03/03 09:43:30;;;;;;;7.75;5.38;;;;;;;15.99;47.96;96883.38;10363749;28;20122;-31
2023/03/03 09:48:33;;;;;;;10.02;5.90;;;;;;;16.01;48.60;96881.72;10236432;28;20136;-31
2023/03/03 09:53:47;;;;;;;11.73;6.18;;;;;;;15.99;48.27;96880.84;10357702;28;20037;-31
2023/03/03 09:59:03;;;;;;;11.18;6.25;;;;;;;16.00;48.71;96877.50;10342592;28;20113;-31
2023/03/03 10:04:23;;;;;;;7.47;5.65;;;;;;;16.04;48.29;96884.28;10320723;28;20038;-31
2023/03/03 10:10:20;;;;;;;25.92;14.20;;;;;;;15.96;48.58;96895.94;10322051;28;20118;-31
2023/03/03 10:15:31;;;;;;;17.13;8.13;;;;;;;15.90;50.38;96884.94;10215500;29;20043;-31
2023/03/03 10:20:53;;;;;;;13.60;7.43;;;;;;;16.07;48.93;96884.31;10323107;28;20099;-31
2023/03/03 10:25:59;;;;;;;13.13;8.02;;;;;;;16.11;50.06;96890.25;10356346;28;20422;-31
2023/03/03 10:31:34;;;;;;;13.80;8.13;;;;;;;16.08;49.92;96870.00;10359183;28;20121;-31
2023/03/03 10:36:56;;;;;;;12.43;7.68;;;;;;;16.11;49.18;96883.50;10347854;28;20042;-31
2023/03/03 10:42:05;;;;;;;13.90;7.43;;;;;;;16.13;49.73;96886.91;10352351;28;20052;-31
2023/03/03 10:47:24;;;;;;;13.93;6.97;;;;;;;16.16;50.01;96888.63;10342832;28;20072;-31
2023/03/03 10:52:45;;;;;;;13.25;7.13;;;;;;;16.19;50.53;96899.59;10348459;28;20061;-31
2023/03/03 10:57:45;;;;;;;9.18;6.60;;;;;;;16.17;51.58;96883.59;10331198;28;20033;-31
2023/03/03 11:03:10;;;;;;;14.85;7.20;;;;;;;16.16;51.03;96884.44;10334722;28;20039;-32
2023/03/03 11:08:20;;;;;;;7.97;6.05;;;;;;;16.19;50.77;96881.94;10337295;28;20510;-31
2023/03/03 11:13:59;;;;;;;12.93;6.88;;;;;;;16.19;50.45;96876.03;10345325;28;20046;-31
2023/03/03 11:19:27;;;;;;;9.60;5.72;;;;;;;16.24;49.60;96879.44;10300058;28;20040;-31
2023/03/03 11:24:42;;;;;;;8.75;6.40;;;;;;;16.22;49.71;96876.06;10370974;28;20046;-31
2023/03/03 11:30:01;;;;;;;7.45;5.75;;;;;;;16.21;49.68;96875.22;10347083;28;20516;-31
2023/03/03 11:35:26;;;;;;;7.78;5.68;;;;;;;16.19;49.94;96879.41;10335065;28;20121;-31
2023/03/03 11:40:41;;;;;;;6.53;5.15;;;;;;;16.24;49.73;96870.22;10328411;28;20043;-32
2023/03/03 11:45:48;;;;;;;7.15;5.57;;;;;;;16.22;50.06;96866.81;10348898;28;20040;-31
2023/03/03 11:51:01;;;;;;;7.00;5.68;;;;;;;16.19;50.08;96865.94;10361962;28;20038;-31
2023/03/03 11:56:27;;;;;;;7.43;5.40;;;;;;;16.22;49.39;96858.38;10344158;28;20041;-31
2023/03/03 12:01:35;;;;;;;6.90;6.00;;;;;;;16.21;49.82;96866.81;10333426;28;20664;-31
2023/03/03 12:06:54;;;;;;;6.05;5.22;;;;;;;16.23;49.89;96866.00;10364415;28;20038;-31
2023/03/03 12:12:00;;;;;;;10.90;5.00;;;;;;;16.24;49.61;96866.81;10329370;28;20030;-31
2023/03/03 12:17:42;;;;;;;8.75;5.70;;;;;;;16.20;51.90;96855.84;10348863;28;20034;-32
2023/03/03 12:23:24;;;;;;;7.65;5.47;;;;;;;16.20;50.14;96845.72;10369046;28;20034;-32
2023/03/03 12:28:36;;;;;;;7.15;5.38;;;;;;;16.22;50.33;96846.63;10212066;28;20045;-31
2023/03/03 12:33:56;;;;;;;11.32;7.30;;;;;;;16.19;50.31;96838.16;10349124;28;20034;-31
2023/03/03 12:39:03;;;;;;;15.25;8.38;;;;;;;16.18;50.80;96852.44;10337503;28;20105;-31
2023/03/03 12:44:19;;;;;;;13.45;9.75;;;;;;;16.11;51.76;96833.00;10350999;28;20057;-31
2023/03/03 12:49:25;;;;;;;12.77;7.80;;;;;;;16.12;50.71;96827.13;10309660;28;20069;-31
2023/03/03 12:54:41;;;;;;;15.30;8.88;;;;;;;16.17;50.72;96825.50;10329455;28;20040;-31
2023/03/03 12:59:44;;;;;;;18.00;8.90;;;;;;;16.19;50.14;96818.78;10358781;28;20072;-31
2023/03/03 13:04:54;;;;;;;13.23;8.20;;;;;;;16.19;49.83;96817.94;10340319;28;20041;-31
2023/03/03 13:10:06;;;;;;;16.50;10.25;;;;;;;16.19;50.16;96812.91;10341562;28;20505;-32
2023/03/03 13:15:16;;;;;;;18.48;12.20;;;;;;;16.21;50.11;96827.22;10340696;28;20125;-31
2023/03/03 13:20:29;;;;;;;22.80;11.68;;;;;;;16.16;51.11;96820.44;10343979;28;20046;-31
2023/03/03 13:25:29;;;;;;;19.27;9.95;;;;;;;16.17;50.78;96825.50;10354378;28;20034;-31
2023/03/03 13:30:34;;;;;;;15.63;9.40;;;;;;;16.25;49.44;96823.91;10343003;28;20030;-30
2023/03/03 13:35:44;;;;;;;20.33;8.38;;;;;;;16.29;52.36;96819.72;10325620;28;20034;-31
2023/03/03 13:41:13;;;;;;;17.52;8.38;;;;;;;16.35;51.38;96830.75;10337300;28;20539;-32
2023/03/03 13:46:54;;;;;;;17.23;8.35;;;;;;;16.36;51.96;96818.97;10303369;28;20061;-31
2023/03/03 13:52:20;;;;;;;20.27;8.20;;;;;;;16.34;50.31;96824.00;10341873;28;20040;-31
2023/03/03 13:57:35;;;;;;;14.65;7.93;;;;;;;16.34;50.67;96829.03;10314779;28;20038;-31
2023/03/03 14:02:38;;;;;;;15.95;8.10;;;;;;;16.34;49.50;96823.13;10335238;28;20339;-31
2023/03/03 14:07:39;;;;;;;18.10;7.10;;;;;;;16.35;49.54;96809.69;10320349;28;20453;-31
2023/03/03 14:13:02;;;;;;;15.68;7.68;;;;;;;16.34;49.42;96813.88;10304504;28;20377;-31
2023/03/03 14:18:17;;;;;;;17.38;9.55;;;;;;;16.35;49.42;96810.53;10353272;28;20038;-31
2023/03/03 14:23:31;;;;;;;30.77;18.02;;;;;;;16.33;50.58;96812.19;10345510;28;20096;-31
2023/03/03 14:28:44;;;;;;;37.25;18.52;;;;;;;16.33;50.82;96808.81;10368206;28;20061;-31
2023/03/03 14:33:58;;;;;;;33.72;16.75;;;;;;;16.35;49.58;96799.59;10368653;28;20034;-31
2023/03/03 14:38:58;;;;;;;36.55;20.35;;;;;;;16.29;50.16;96799.53;10365409;28;20026;-30
2023/03/03 14:44:01;;;;;;;38.38;22.20;;;;;;;16.31;50.12;96798.72;10329502;28;20042;-32
2023/03/03 14:49:04;;;;;;;40.78;24.90;;;;;;;16.32;50.64;96802.94;10343465;28;20494;-31
2023/03/03 14:54:27;;;;;;;38.95;21.25;;;;;;;16.35;49.69;96797.06;10354713;28;20026;-31
2023/03/03 14:59:27;;;;;;;35.88;23.75;;;;;;;16.44;50.28;96800.53;10347455;28;20033;-31
2023/03/03 15:04:29;;;;;;;64.80;43.58;;;;;;;16.41;55.37;96800.53;10366034;28;20662;-31
2023/03/03 15:09:39;;;;;;;69.50;42.45;;;;;;;16.37;54.85;96801.31;10330603;28;20034;-31
2023/03/03 15:14:45;;;;;;;61.58;39.67;;;;;;;16.33;53.62;96799.56;10331598;28;20513;-30
2023/03/03 15:19:57;;;;;;;61.85;40.72;;;;;;;16.31;54.19;96793.66;10338892;28;20027;-31
2023/03/03 15:25:08;;;;;;;58.72;37.08;;;;;;;16.29;53.54;96791.94;10345744;28;20053;-32
2023/03/03 15:30:11;;;;;;;62.97;38.70;;;;;;;16.19;53.84;96778.38;10347101;28;20162;-31
2023/03/03 15:35:24;;;;;;;46.80;31.83;;;;;;;16.26;52.96;96800.34;10343188;28;20048;-31
2023/03/03 15:40:36;;;;;;;55.05;36.13;;;;;;;16.23;53.09;96799.47;10344696;28;20037;-31
2023/03/03 15:46:13;;;;;;;44.85;30.50;;;;;;;16.25;52.41;96802.84;10334722;28;20029;-30
2023/03/03 15:51:46;;;;;;;48.13;34.30;;;;;;;16.24;52.83;96811.25;10323173;28;20117;-32
2023/03/03 15:56:52;;;;;;;52.63;35.65;;;;;;;16.23;54.10;96807.91;10332260;28;20066;-32
2023/03/03 16:02:22;;;;;;;39.90;28.63;;;;;;;16.24;52.08;96806.19;10339829;28;20030;-31
2023/03/03 16:07:30;;;;;;;50.60;38.47;;;;;;;16.24;53.24;96817.16;10342122;28;20038;-31
2023/03/03 16:12:49;;;;;;;56.38;38.60;;;;;;;16.24;53.24;96817.16;10341920;28;20035;-31
2023/03/03 16:18:02;;;;;;;55.08;35.10;;;;;;;16.26;52.71;96817.16;10339024;28;20065;-30
2023/03/03 16:23:22;;;;;;;48.88;36.63;;;;;;;16.29;53.86;96820.56;10314812;28;20026;-31
2023/03/03 16:28:36;;;;;;;51.10;36.40;;;;;;;16.26;53.25;96830.66;10337675;28;20040;-31
2023/03/03 16:33:48;;;;;;;57.10;32.70;;;;;;;16.23;51.34;96840.72;10347060;28;20092;-31
2023/03/03 16:39:09;;;;;;;48.22;32.55;;;;;;;16.22;52.80;96843.22;10332236;28;20022;-31
2023/03/03 16:44:40;;;;;;;52.85;33.90;;;;;;;16.21;51.73;96857.53;10331516;28;20058;-32
2023/03/03 16:50:09;;;;;;;49.80;31.58;;;;;;;16.17;51.54;96860.88;10312417;28;20127;-31
2023/03/03 16:55:31;;;;;;;59.38;31.00;;;;;;;16.02;48.91;96870.78;10322039;28;20031;-32
2023/03/03 17:00:58;;;;;;;48.20;32.47;;;;;;;16.17;50.37;96870.09;10342416;28;20166;-31
2023/03/03 17:06:11;;;;;;;48.78;31.85;;;;;;;16.21;50.86;96882.78;10306782;28;20065;-31
2023/03/03 17:11:30;;;;;;;44.15;31.25;;;;;;;16.22;50.99;96891.22;10342575;28;20046;-32
2023/03/03 17:16:41;;;;;;;45.95;31.80;;;;;;;16.22;51.24;96899.66;10313135;28;20042;-31
2023/03/03 17:22:09;;;;;;;42.03;28.80;;;;;;;16.23;50.18;96903.88;10358384;28;20035;-31
2023/03/03 17:27:35;;;;;;;40.97;28.88;;;;;;;16.21;50.42;96902.16;10319279;28;20113;-31
2023/03/03 17:32:50;;;;;;;45.75;30.50;;;;;;;16.21;52.59;96908.03;10276700;28;20503;-31
2023/03/03 17:38:12;;;;;;;53.03;29.58;;;;;;;16.19;51.80;96904.66;10324506;28;20486;-31
2023/03/03 17:43:20;;;;;;;41.08;28.35;;;;;;;16.21;51.44;96913.09;10301720;28;20314;-31
2023/03/03 17:48:47;;;;;;;46.10;28.20;;;;;;;16.21;51.87;96923.19;10312483;28;20046;-31
2023/03/03 17:54:18;;;;;;;36.05;24.38;;;;;;;16.26;51.02;96928.31;10347563;28;20120;-31
2023/03/03 17:59:43;;;;;;;43.03;25.27;;;;;;;16.21;52.36;96928.25;10335299;28;20092;-31
2023/03/03 18:04:53;;;;;;;44.38;28.13;;;;;;;16.21;53.11;96937.53;10357999;28;20112;-31
2023/03/03 18:10:12;;;;;;;44.38;26.55;;;;;;;16.18;52.58;96938.34;10318030;28;20058;-31
2023/03/03 18:15:39;;;;;;;40.40;23.27;;;;;;;16.17;51.84;96951.78;10339145;28;20096;-31
2023/03/03 18:20:53;;;;;;;41.60;24.35;;;;;;;16.22;52.68;96945.13;10349472;28;20422;-32
2023/03/03 18:25:56;;;;;;;42.80;25.00;;;;;;;16.21;52.52;96953.50;10354812;28;20407;-31
2023/03/03 18:30:59;;;;;;;42.72;23.65;;;;;;;16.21;52.86;96962.78;10364629;28;20068;-31
2023/03/03 18:36:37;;;;;;;35.75;22.08;;;;;;;16.19;52.79;96957.69;10354181;28;20033;-31
2023/03/03 18:42:04;;;;;;;31.50;21.52;;;;;;;16.17;52.00;96969.47;10317600;28;20447;-31
2023/03/03 18:47:05;;;;;;;34.95;21.30;;;;;;;16.18;52.88;96971.16;10348343;28;20029;-31
2023/03/03 18:52:29;;;;;;;32.47;20.50;;;;;;;16.19;52.62;96965.28;10340532;28;20087;-31
2023/03/03 18:57:29;;;;;;;37.38;19.48;;;;;;;16.21;51.92;96973.72;10351460;28;20069;-31
2023/03/03 19:02:47;;;;;;;29.13;19.15;;;;;;;16.19;52.36;96975.38;10361250;28;20088;-31
2023/03/03 19:07:57;;;;;;;28.15;17.70;;;;;;;16.18;52.14;96981.28;10339468;28;20038;-31
2023/03/03 19:12:58;;;;;;;43.42;17.13;;;;;;;16.17;51.23;96983.75;10327039;28;20042;-31
2023/03/03 19:18:22;;;;;;;22.90;17.15;;;;;;;16.17;52.06;96982.09;10335281;28;20619;-31
2023/03/03 19:23:47;;;;;;;23.90;17.73;;;;;;;16.18;51.91;96981.28;10333744;28;20042;-31
2023/03/03 19:29:14;;;;;;;22.10;16.25;;;;;;;16.17;51.98;96987.16;10336765;28;20041;-31
2023/03/03 19:34:24;;;;;;;22.80;16.87;;;;;;;16.19;52.16;96994.75;10291386;28;20042;-31
2023/03/03 19:39:42;;;;;;;23.70;16.95;;;;;;;16.18;51.54;96993.91;10312014;28;20214;-31
2023/03/03 19:44:56;;;;;;;21.45;15.45;;;;;;;16.17;51.34;96997.25;10313042;28;20117;-32
2023/03/03 19:50:17;;;;;;;23.63;15.55;;;;;;;16.19;51.17;97005.69;10331972;28;20038;-31
2023/03/03 19:55:27;;;;;;;21.88;14.73;;;;;;;16.20;51.03;97002.34;10306935;28;20038;-32
2023/03/03 20:00:37;;;;;;;24.15;16.00;;;;;;;16.17;52.15;97007.34;10307857;28;20045;-31
2023/03/03 20:06:05;;;;;;;26.92;15.93;;;;;;;16.15;52.52;97003.97;10309499;28;20214;-31
2023/03/03 20:11:20;;;;;;;23.98;15.38;;;;;;;16.20;52.43;97009.91;10313023;28;20075;-31
2023/03/03 20:16:41;;;;;;;24.05;15.05;;;;;;;16.19;52.96;97020.03;10294309;28;20049;-38
2023/03/03 20:21:57;;;;;;;25.05;15.95;;;;;;;16.21;53.20;97023.41;10293557;28;20029;-30
2023/03/03 20:27:16;;;;;;;26.23;14.82;;;;;;;16.18;52.98;97021.69;10291278;28;20031;-31
2023/03/03 20:32:50;;;;;;;26.52;15.68;;;;;;;16.16;53.41;97027.53;10297697;28;20046;-31
2023/03/03 20:38:06;;;;;;;23.02;14.98;;;;;;;16.19;53.74;97036.00;10288795;28;20053;-31
2023/03/03 20:43:16;;;;;;;26.85;15.20;;;;;;;16.22;52.30;97042.78;10295260;28;20126;-31
2023/03/03 20:48:25;;;;;;;19.45;13.65;;;;;;;16.22;52.71;97032.69;10295650;28;20085;-31
2023/03/03 20:53:34;;;;;;;21.90;13.90;;;;;;;16.19;52.42;97046.13;10286724;28;20055;-31
2023/03/03 20:58:52;;;;;;;28.63;14.35;;;;;;;16.18;52.49;97041.88;10296767;28;20047;-31
2023/03/03 21:03:52;;;;;;;26.10;13.98;;;;;;;16.21;52.04;97043.63;10292639;28;20046;-31
2023/03/03 21:08:55;;;;;;;18.77;12.63;;;;;;;16.20;51.88;97042.75;10296185;28;20046;-31
2023/03/03 21:13:57;;;;;;;24.15;13.48;;;;;;;16.16;51.58;97041.03;10298031;28;20038;-31
2023/03/03 21:18:59;;;;;;;19.75;12.70;;;;;;;16.16;52.20;97041.03;10297838;28;20027;-31
2023/03/03 21:23:59;;;;;;;20.13;13.05;;;;;;;16.14;52.49;97042.69;10300378;28;20049;-31
2023/03/03 21:29:00;;;;;;;18.13;13.17;;;;;;;16.13;52.70;97046.00;10288229;28;20096;-33
2023/03/03 21:34:00;;;;;;;19.48;12.70;;;;;;;16.16;51.55;97048.59;10302312;28;20290;-31
2023/03/03 21:39:18;;;;;;;17.53;11.40;;;;;;;16.18;51.41;97048.63;10292043;28;20054;-31
2023/03/03 21:44:51;;;;;;;15.20;10.80;;;;;;;16.19;51.22;97045.28;10291372;28;20046;-31
2023/03/03 21:49:51;;;;;;;16.20;11.43;;;;;;;16.17;51.19;97046.91;10255034;28;20038;-31
2023/03/03 21:54:52;;;;;;;15.85;11.40;;;;;;;16.17;50.93;97047.78;10293584;28;20043;-31
2023/03/03 21:59:52;;;;;;;18.02;12.13;;;;;;;16.18;50.89;97048.63;10293115;28;20170;-33
2023/03/03 22:04:53;;;;;;;15.70;10.85;;;;;;;16.19;50.40;97046.13;10298868;28;20035;-31
2023/03/03 22:09:53;;;;;;;18.02;11.18;;;;;;;16.17;51.09;97051.97;10291345;28;20145;-31
2023/03/03 22:14:54;;;;;;;17.53;11.23;;;;;;;16.18;50.76;97056.22;10299753;28;20244;-31
2023/03/03 22:19:54;;;;;;;13.70;10.85;;;;;;;16.17;50.65;97057.88;10290667;28;20294;-31
2023/03/03 22:24:55;;;;;;;15.02;10.90;;;;;;;16.18;50.40;97058.75;10295134;28;20035;-32
2023/03/03 22:29:55;;;;;;;12.93;10.50;;;;;;;16.18;50.79;97049.47;10290088;28;20089;-31
2023/03/03 22:34:55;;;;;;;14.23;10.87;;;;;;;16.17;50.80;97057.03;10297925;28;20037;-31
2023/03/03 22:39:56;;;;;;;15.27;10.77;;;;;;;16.13;51.42;97055.28;10293626;28;20023;-31
2023/03/03 22:44:56;;;;;;;16.03;11.60;;;;;;;16.13;51.77;97056.13;10301314;28;20031;-31
2023/03/03 22:49:57;;;;;;;12.70;10.18;;;;;;;16.16;50.96;97053.66;10308524;28;20035;-31
2023/03/03 22:54:58;;;;;;;17.05;10.98;;;;;;;16.18;50.73;97051.16;10299127;28;20034;-31
2023/03/03 22:59:58;;;;;;;12.23;9.33;;;;;;;16.18;50.56;97053.69;10305730;28;20027;-31
2023/03/03 23:05:00;;;;;;;13.30;9.52;;;;;;;16.16;51.02;97050.28;10302611;28;20801;-31
2023/03/03 23:10:01;;;;;;;12.70;8.73;;;;;;;16.11;51.14;97050.19;10294435;28;20505;-31
2023/03/03 23:15:05;;;;;;;14.45;9.05;;;;;;;16.14;51.48;97042.69;10294430;28;20065;-31
2023/03/03 23:20:06;;;;;;;13.63;9.77;;;;;;;16.17;50.58;97039.34;10298628;28;20078;-31
2023/03/03 23:25:07;;;;;;;11.68;10.15;;;;;;;16.15;50.78;97031.75;10293699;28;20093;-31
2023/03/03 23:30:11;;;;;;;13.55;8.68;;;;;;;16.15;50.74;97035.94;10291425;28;20415;-31
2023/03/03 23:35:12;;;;;;;11.27;9.45;;;;;;;16.20;50.93;97052.84;10297727;28;20176;-31
2023/03/03 23:40:15;;;;;;;11.40;8.45;;;;;;;16.20;50.72;97050.34;10291687;28;20038;-31